Time;durP1;ratioP1;P1;durP2;ratioP2;P2;SDS_P1;SDS_P2;PMS_P1;PMS_P2;Temp;Humidity;BMP_temperature;BMP_pressure;BME280_temperature;BME280_humidity;BME280_pressure;Samples;Min_cycle;Max_cycle;Signal;HPM_P1;HPM_P2
2023/10/22 00:02:07;;;;;;;;;;;17.80;75.50;;;;;;7384187;19;4941;-54
2023/10/22 00:04:32;;;;;;;;;;;17.80;75.60;;;;;;7386722;19;4950;-55
2023/10/22 00:06:58;;;;;;;;;;;17.80;75.60;;;;;;7386101;19;5070;-55
2023/10/22 00:09:23;;;;;;;;;;;17.80;75.60;;;;;;7387053;19;4975;-54
2023/10/22 00:11:49;;;;;;;;;;;17.80;75.50;;;;;;7387201;19;3676;-55
2023/10/22 00:14:14;;;;;;;;;;;17.80;75.60;;;;;;7386782;19;4869;-54
2023/10/22 00:16:40;;;;;;;;;;;17.80;75.70;;;;;;7386533;19;5111;-55
2023/10/22 00:19:06;;;;;;;;;;;17.70;75.50;;;;;;7382122;19;4473;-55
2023/10/22 00:21:32;;;;;;;;;;;17.70;75.60;;;;;;7383977;19;4782;-55
2023/10/22 00:23:57;;;;;;;;;;;17.70;75.50;;;;;;7384607;19;5000;-55
2023/10/22 00:26:23;;;;;;;;;;;17.70;75.60;;;;;;7386093;19;4980;-55
2023/10/22 00:28:48;;;;;;;;;;;17.60;75.50;;;;;;7383510;19;5585;-54
2023/10/22 00:31:13;;;;;;;;;;;17.70;75.70;;;;;;7386376;19;5054;-55
2023/10/22 00:33:39;;;;;;;;;;;17.60;75.60;;;;;;7385456;19;5455;-55
2023/10/22 00:36:04;;;;;;;;;;;17.60;75.50;;;;;;7380620;19;3770;-55
2023/10/22 00:38:30;;;;;;;;;;;17.60;75.60;;;;;;7383544;19;3848;-55
2023/10/22 00:40:55;;;;;;;;;;;17.60;75.60;;;;;;7382490;19;4982;-55
2023/10/22 00:43:21;;;;;;;;;;;17.60;75.60;;;;;;7381175;19;4515;-55
2023/10/22 00:45:46;;;;;;;;;;;17.60;75.60;;;;;;7383976;19;4805;-55
2023/10/22 00:48:12;;;;;;;;;;;17.50;75.50;;;;;;7385691;19;4985;-55
2023/10/22 00:50:39;;;;;;;;;;;17.50;75.50;;;;;;7382073;19;5088;-54
2023/10/22 00:53:05;;;;;;;;;;;17.50;75.40;;;;;;7379909;19;4885;-53
2023/10/22 00:55:30;;;;;;;;;;;17.50;75.50;;;;;;7381255;19;4860;-55
2023/10/22 00:57:57;;;;;;;;;;;17.50;75.60;;;;;;7386483;19;3738;-53
2023/10/22 01:00:22;;;;;;;;;;;17.50;75.60;;;;;;7398195;19;1676;-53
2023/10/22 01:02:47;;;;;;;;;;;17.50;75.60;;;;;;7388086;19;5041;-51
2023/10/22 01:05:13;;;;;;;;;;;17.50;75.60;;;;;;7382240;19;4377;-54
2023/10/22 01:07:38;;;;;;;;;;;17.40;75.50;;;;;;7385757;19;4998;-55
2023/10/22 01:10:04;;;;;;;;;;;17.40;75.50;;;;;;7384925;19;5118;-54
2023/10/22 01:12:33;;;;;;;;;;;17.40;75.70;;;;;;7383849;19;3729;-54
2023/10/22 01:14:58;;;;;;;;;;;17.50;76.60;;;;;;7383123;19;4269;-54
2023/10/22 01:17:23;;;;;;;;;;;17.50;75.80;;;;;;7383999;19;4242;-55
2023/10/22 01:19:50;;;;;;;;;;;17.50;75.70;;;;;;7382919;19;5080;-55
2023/10/22 01:22:15;;;;;;;;;;;17.60;75.60;;;;;;7381693;19;4741;-54
2023/10/22 01:24:41;;;;;;;;;;;17.70;75.50;;;;;;7383999;19;4465;-55
2023/10/22 01:27:06;;;;;;;;;;;17.70;75.20;;;;;;7380996;19;4952;-54
2023/10/22 01:29:32;;;;;;;;;;;17.90;74.90;;;;;;7381855;19;4003;-55
2023/10/22 01:31:57;;;;;;;;;;;18.00;74.50;;;;;;7383056;19;3837;-55
2023/10/22 01:34:22;;;;;;;;;;;18.10;74.00;;;;;;7382481;19;5026;-55
2023/10/22 01:36:48;;;;;;;;;;;18.30;73.50;;;;;;7381538;19;3952;-54
2023/10/22 01:39:14;;;;;;;;;;;18.40;73.10;;;;;;7394430;19;3262;-52
2023/10/22 01:41:41;;;;;;;;;;;18.60;72.60;;;;;;7393678;19;2230;-52
2023/10/22 01:44:06;;;;;;;;;;;18.80;72.30;;;;;;7395156;19;1703;-53
2023/10/22 01:46:32;;;;;;;;;;;18.90;71.90;;;;;;7386788;19;3709;-55
2023/10/22 01:48:57;;;;;;;;;;;18.90;71.50;;;;;;7383277;19;5663;-54
2023/10/22 01:51:23;;;;;;;;;;;19.00;71.30;;;;;;7383248;19;4886;-55
2023/10/22 01:53:49;;;;;;;;;;;19.10;71.20;;;;;;7382829;19;3722;-54
2023/10/22 01:56:15;;;;;;;;;;;19.10;71.10;;;;;;7381137;19;4945;-55
2023/10/22 01:58:40;;;;;;;;;;;19.10;71.00;;;;;;7383421;19;4981;-55
2023/10/22 02:01:06;;;;;;;;;;;19.10;70.90;;;;;;7379356;19;4218;-54
2023/10/22 02:03:35;;;;;;;;;;;19.10;70.90;;;;;;7383840;19;5007;-55
2023/10/22 02:06:00;;;;;;;;;;;19.10;71.00;;;;;;7383170;19;5001;-55
2023/10/22 02:08:25;;;;;;;;;;;19.00;70.90;;;;;;7385001;19;4928;-55
2023/10/22 02:10:51;;;;;;;;;;;19.00;70.90;;;;;;7381905;19;4977;-55
2023/10/22 02:13:17;;;;;;;;;;;19.00;71.00;;;;;;7383231;19;3885;-54
2023/10/22 02:15:43;;;;;;;;;;;19.00;71.10;;;;;;7381032;19;3978;-55
2023/10/22 02:18:08;;;;;;;;;;;19.00;71.00;;;;;;7381548;19;5179;-55
2023/10/22 02:20:34;;;;;;;;;;;18.90;71.10;;;;;;7382672;19;3996;-54
2023/10/22 02:23:00;;;;;;;;;;;18.90;71.30;;;;;;7382109;19;5018;-55
2023/10/22 02:25:26;;;;;;;;;;;18.90;71.40;;;;;;7383442;19;3765;-54
2023/10/22 02:27:52;;;;;;;;;;;18.80;71.40;;;;;;7382577;19;4935;-54
2023/10/22 02:30:17;;;;;;;;;;;18.80;71.50;;;;;;7383690;19;4854;-54
2023/10/22 02:32:42;;;;;;;;;;;18.80;71.50;;;;;;7381326;19;3921;-54
2023/10/22 02:35:10;;;;;;;;;;;18.80;72.30;;;;;;7391156;19;2799;-52
2023/10/22 02:37:35;;;;;;;;;;;18.80;71.60;;;;;;7384852;19;4836;-54
2023/10/22 02:40:01;;;;;;;;;;;18.80;71.50;;;;;;7381012;19;3736;-55
2023/10/22 02:42:27;;;;;;;;;;;18.90;71.30;;;;;;7383945;19;5040;-54
2023/10/22 02:44:52;;;;;;;;;;;18.90;71.10;;;;;;7388613;19;4901;-54
2023/10/22 02:47:18;;;;;;;;;;;18.90;70.80;;;;;;7388624;19;4403;-54
2023/10/22 02:49:43;;;;;;;;;;;19.00;70.90;;;;;;7396605;19;3930;-53
2023/10/22 02:52:08;;;;;;;;;;;19.00;70.80;;;;;;7388261;19;3422;-54
2023/10/22 02:54:34;;;;;;;;;;;19.00;70.70;;;;;;7379688;19;4786;-55
2023/10/22 02:56:59;;;;;;;;;;;19.00;70.70;;;;;;7380927;19;4036;-54
2023/10/22 02:59:25;;;;;;;;;;;19.00;70.70;;;;;;7385050;19;4976;-55
2023/10/22 03:01:50;;;;;;;;;;;18.90;70.60;;;;;;7386292;19;4041;-55
2023/10/22 03:04:16;;;;;;;;;;;19.00;70.80;;;;;;7384890;19;4943;-55
2023/10/22 03:06:41;;;;;;;;;;;18.90;70.70;;;;;;7383391;19;3880;-55
2023/10/22 03:09:07;;;;;;;;;;;18.90;70.90;;;;;;7386405;19;3809;-55
2023/10/22 03:11:32;;;;;;;;;;;18.90;71.00;;;;;;7386410;19;3797;-55
2023/10/22 03:13:58;;;;;;;;;;;18.90;71.10;;;;;;7388465;19;4913;-54
2023/10/22 03:16:23;;;;;;;;;;;18.90;71.10;;;;;;7385731;19;5472;-55
2023/10/22 03:18:49;;;;;;;;;;;18.80;71.10;;;;;;7388926;19;4098;-54
2023/10/22 03:21:19;;;;;;;;;;;18.80;71.20;;;;;;7386697;19;5117;-55
2023/10/22 03:23:45;;;;;;;;;;;18.80;71.10;;;;;;7388039;19;4867;-54
2023/10/22 03:26:13;;;;;;;;;;;18.80;71.10;;;;;;7387279;19;5104;-54
2023/10/22 03:28:38;;;;;;;;;;;18.80;71.10;;;;;;7384204;19;3755;-55
2023/10/22 03:31:04;;;;;;;;;;;18.80;70.90;;;;;;7384693;19;3909;-54
2023/10/22 03:33:30;;;;;;;;;;;18.90;70.60;;;;;;7384797;19;4796;-55
2023/10/22 03:35:55;;;;;;;;;;;18.90;70.50;;;;;;7384845;19;3690;-54
2023/10/22 03:38:21;;;;;;;;;;;19.00;70.40;;;;;;7385226;19;4432;-55
2023/10/22 03:40:46;;;;;;;;;;;19.00;71.20;;;;;;7388165;19;5162;-54
2023/10/22 03:43:12;;;;;;;;;;;19.00;70.30;;;;;;7387170;19;4822;-54
2023/10/22 03:45:37;;;;;;;;;;;19.00;70.30;;;;;;7381660;19;4922;-55
2023/10/22 03:48:03;;;;;;;;;;;19.00;70.30;;;;;;7385688;19;5024;-54
2023/10/22 03:50:28;;;;;;;;;;;19.00;70.20;;;;;;7385962;19;4852;-54
2023/10/22 03:52:54;;;;;;;;;;;19.00;70.20;;;;;;7386826;19;3600;-54
2023/10/22 03:55:19;;;;;;;;;;;19.00;70.10;;;;;;7385387;19;5111;-54
2023/10/22 03:57:45;;;;;;;;;;;19.00;71.00;;;;;;7387606;19;4477;-54
2023/10/22 04:00:10;;;;;;;;;;;19.00;70.20;;;;;;7386504;19;4951;-55
2023/10/22 04:02:36;;;;;;;;;;;19.00;70.20;;;;;;7377909;19;3985;-55
2023/10/22 04:05:01;;;;;;;;;;;18.90;70.20;;;;;;7381939;19;4876;-55
2023/10/22 04:07:27;;;;;;;;;;;18.90;70.30;;;;;;7382460;19;4046;-55
2023/10/22 04:09:52;;;;;;;;;;;18.90;70.30;;;;;;7383362;19;3814;-54
2023/10/22 04:12:17;;;;;;;;;;;18.90;70.30;;;;;;7380303;19;3767;-54
2023/10/22 04:14:43;;;;;;;;;;;18.90;70.30;;;;;;7384542;19;3958;-55
2023/10/22 04:17:08;;;;;;;;;;;18.90;70.30;;;;;;7380890;19;4942;-55
2023/10/22 04:19:34;;;;;;;;;;;18.90;70.10;;;;;;7382334;19;4871;-55
2023/10/22 04:21:59;;;;;;;;;;;18.90;70.30;;;;;;7382358;19;4886;-55
2023/10/22 04:24:24;;;;;;;;;;;19.00;70.30;;;;;;7387149;19;4934;-54
2023/10/22 04:26:50;;;;;;;;;;;19.00;70.20;;;;;;7387898;19;4754;-54
2023/10/22 04:29:15;;;;;;;;;;;19.00;70.00;;;;;;7382904;19;5410;-54
2023/10/22 04:31:41;;;;;;;;;;;19.00;69.90;;;;;;7382434;19;3833;-55
2023/10/22 04:34:07;;;;;;;;;;;19.00;70.00;;;;;;7390376;19;4996;-53
2023/10/22 04:36:32;;;;;;;;;;;19.00;69.90;;;;;;7393281;19;1937;-53
2023/10/22 04:38:57;;;;;;;;;;;19.00;69.90;;;;;;7392229;19;3239;-54
2023/10/22 04:41:23;;;;;;;;;;;19.00;69.90;;;;;;7384718;19;5060;-55
2023/10/22 04:43:48;;;;;;;;;;;19.00;69.90;;;;;;7384776;19;5198;-54
2023/10/22 04:46:14;;;;;;;;;;;19.00;69.90;;;;;;7384647;19;3782;-55
2023/10/22 04:48:40;;;;;;;;;;;19.00;69.90;;;;;;7386255;19;3873;-54
2023/10/22 04:51:06;;;;;;;;;;;19.00;69.90;;;;;;7383496;19;3766;-54
2023/10/22 04:53:32;;;;;;;;;;;19.00;69.90;;;;;;7383020;19;5040;-54
2023/10/22 04:55:58;;;;;;;;;;;19.00;70.00;;;;;;7388138;19;4722;-53
2023/10/22 04:58:23;;;;;;;;;;;18.90;70.00;;;;;;7398468;19;1812;-52
2023/10/22 05:00:49;;;;;;;;;;;18.90;69.90;;;;;;7388142;19;5006;-54
2023/10/22 05:03:14;;;;;;;;;;;18.90;69.90;;;;;;7384561;19;3637;-55
2023/10/22 05:05:40;;;;;;;;;;;18.90;70.00;;;;;;7379698;19;4784;-54
2023/10/22 05:08:05;;;;;;;;;;;18.90;69.90;;;;;;7383855;19;3839;-54
2023/10/22 05:10:40;;;;;;;;;;;18.90;69.90;;;;;;7382903;19;5207;-56
2023/10/22 05:13:05;;;;;;;;;;;18.90;69.80;;;;;;7387408;19;3932;-55
2023/10/22 05:15:31;;;;;;;;;;;19.00;69.70;;;;;;7394718;19;2007;-53
2023/10/22 05:17:57;;;;;;;;;;;19.00;69.70;;;;;;7395855;19;1694;-53
2023/10/22 05:20:23;;;;;;;;;;;19.00;69.60;;;;;;7396227;19;1954;-53
2023/10/22 05:22:49;;;;;;;;;;;19.00;69.60;;;;;;7389320;19;5297;-56
2023/10/22 05:25:14;;;;;;;;;;;19.00;69.50;;;;;;7385339;19;4147;-55
2023/10/22 05:27:39;;;;;;;;;;;19.00;69.50;;;;;;7385822;19;4918;-55
2023/10/22 05:30:05;;;;;;;;;;;19.00;69.50;;;;;;7383794;19;5367;-55
2023/10/22 05:32:31;;;;;;;;;;;19.00;69.50;;;;;;7384890;19;4087;-54
2023/10/22 05:34:56;;;;;;;;;;;19.00;69.60;;;;;;7382694;19;3690;-55
2023/10/22 05:37:22;;;;;;;;;;;19.00;69.60;;;;;;7381488;19;5962;-55
2023/10/22 05:39:48;;;;;;;;;;;19.00;69.60;;;;;;7383861;19;5158;-54
2023/10/22 05:42:13;;;;;;;;;;;19.00;69.60;;;;;;7383044;19;5111;-55
2023/10/22 05:44:39;;;;;;;;;;;19.00;69.70;;;;;;7380928;19;5257;-55
2023/10/22 05:47:04;;;;;;;;;;;18.90;69.60;;;;;;7384885;19;4524;-54
2023/10/22 05:49:30;;;;;;;;;;;18.90;69.60;;;;;;7383451;19;5077;-55
2023/10/22 05:51:55;;;;;;;;;;;18.90;69.70;;;;;;7382786;19;4867;-54
2023/10/22 05:54:21;;;;;;;;;;;18.90;69.80;;;;;;7385355;19;3767;-55
2023/10/22 05:56:46;;;;;;;;;;;18.90;69.80;;;;;;7380374;19;5049;-54
2023/10/22 05:59:12;;;;;;;;;;;18.90;69.80;;;;;;7382050;19;5000;-54
2023/10/22 06:01:41;;;;;;;;;;;18.90;69.60;;;;;;7382062;19;4959;-55
2023/10/22 06:04:10;;;;;;;;;;;18.90;69.60;;;;;;7374364;19;4964;-55
2023/10/22 06:06:35;;;;;;;;;;;19.00;69.60;;;;;;7379361;19;4912;-53
2023/10/22 06:09:01;;;;;;;;;;;19.00;69.40;;;;;;7378683;19;4767;-55
2023/10/22 06:11:26;;;;;;;;;;;19.00;69.40;;;;;;7380631;19;3843;-55
2023/10/22 06:13:52;;;;;;;;;;;19.00;69.20;;;;;;7381182;19;4959;-55
2023/10/22 06:16:17;;;;;;;;;;;19.10;69.30;;;;;;7389378;19;1842;-52
2023/10/22 06:18:43;;;;;;;;;;;19.10;69.20;;;;;;7397248;19;1587;-51
2023/10/22 06:21:12;;;;;;;;;;;19.10;69.10;;;;;;7389923;19;3727;-55
2023/10/22 06:23:37;;;;;;;;;;;19.10;69.20;;;;;;7389778;19;4563;-55
2023/10/22 06:26:03;;;;;;;;;;;19.10;69.20;;;;;;7389381;19;3903;-54
2023/10/22 06:28:28;;;;;;;;;;;19.00;69.10;;;;;;7390329;19;3942;-55
2023/10/22 06:31:02;;;;;;;;;;;19.00;69.20;;;;;;7389643;19;4122;-54
2023/10/22 06:33:28;;;;;;;;;;;19.00;69.30;;;;;;7390418;19;3703;-54
2023/10/22 06:35:53;;;;;;;;;;;19.00;69.20;;;;;;7385716;19;3755;-54
2023/10/22 06:38:18;;;;;;;;;;;18.90;69.30;;;;;;7386099;19;4937;-55
2023/10/22 06:40:44;;;;;;;;;;;18.90;69.30;;;;;;7388985;19;5073;-54
2023/10/22 06:43:09;;;;;;;;;;;18.90;69.40;;;;;;7389843;19;4661;-55
2023/10/22 06:45:35;;;;;;;;;;;18.90;69.40;;;;;;7389996;19;4779;-54
2023/10/22 06:48:01;;;;;;;;;;;18.90;69.50;;;;;;7388290;19;4575;-54
2023/10/22 06:50:26;;;;;;;;;;;18.90;69.50;;;;;;7388207;19;4961;-54
2023/10/22 06:52:52;;;;;;;;;;;18.90;69.50;;;;;;7388962;19;4871;-54
2023/10/22 06:55:17;;;;;;;;;;;18.90;69.20;;;;;;7386141;19;4890;-54
2023/10/22 06:57:44;;;;;;;;;;;19.00;69.30;;;;;;7388873;19;4434;-54
2023/10/22 07:00:12;;;;;;;;;;;19.00;69.20;;;;;;7388925;19;4920;-54
2023/10/22 07:02:38;;;;;;;;;;;19.00;69.80;;;;;;7381877;19;4381;-55
2023/10/22 07:05:04;;;;;;;;;;;19.10;69.00;;;;;;7376644;19;5003;-55
2023/10/22 07:07:29;;;;;;;;;;;19.10;68.80;;;;;;7382680;19;5015;-54
2023/10/22 07:09:55;;;;;;;;;;;19.10;68.90;;;;;;7385246;19;4775;-54
2023/10/22 07:12:21;;;;;;;;;;;19.10;68.90;;;;;;7382229;19;5977;-54
2023/10/22 07:14:46;;;;;;;;;;;19.10;69.00;;;;;;7383731;19;4724;-54
2023/10/22 07:17:12;;;;;;;;;;;19.10;69.00;;;;;;7385208;19;5036;-55
2023/10/22 07:19:37;;;;;;;;;;;19.10;69.00;;;;;;7386090;19;4842;-54
2023/10/22 07:22:03;;;;;;;;;;;19.00;69.00;;;;;;7380677;19;5142;-55
2023/10/22 07:24:28;;;;;;;;;;;19.00;68.80;;;;;;7388988;19;4935;-54
2023/10/22 07:26:54;;;;;;;;;;;19.00;68.90;;;;;;7388032;19;5143;-54
2023/10/22 07:29:19;;;;;;;;;;;19.00;69.00;;;;;;7385499;19;5080;-55
2023/10/22 07:31:48;;;;;;;;;;;19.00;69.10;;;;;;7389782;19;3855;-52
2023/10/22 07:34:13;;;;;;;;;;;18.90;69.10;;;;;;7387726;19;4868;-51
2023/10/22 07:36:39;;;;;;;;;;;18.90;69.10;;;;;;7383095;19;4803;-54
2023/10/22 07:39:04;;;;;;;;;;;18.90;69.20;;;;;;7383978;19;5107;-55
2023/10/22 07:41:29;;;;;;;;;;;18.90;69.30;;;;;;7387286;19;4881;-55
2023/10/22 07:43:55;;;;;;;;;;;18.90;69.40;;;;;;7387312;19;4925;-54
2023/10/22 07:46:20;;;;;;;;;;;18.90;69.40;;;;;;7386571;19;4950;-54
2023/10/22 07:48:46;;;;;;;;;;;19.00;69.40;;;;;;7388492;19;5092;-54
2023/10/22 07:51:12;;;;;;;;;;;19.00;69.20;;;;;;7384706;19;5322;-55
2023/10/22 07:53:37;;;;;;;;;;;19.00;69.00;;;;;;7387626;19;4406;-54
2023/10/22 07:56:03;;;;;;;;;;;19.10;68.90;;;;;;7386050;19;4719;-54
2023/10/22 07:58:29;;;;;;;;;;;19.10;68.70;;;;;;7388314;19;4770;-55
2023/10/22 08:00:54;;;;;;;;;;;19.10;68.60;;;;;;7384934;19;4278;-55
2023/10/22 08:03:19;;;;;;;;;;;19.20;68.50;;;;;;7386758;19;4316;-55
2023/10/22 08:05:45;;;;;;;;;;;19.20;68.60;;;;;;7375793;19;4810;-55
2023/10/22 08:08:10;;;;;;;;;;;19.20;68.60;;;;;;7384253;19;4904;-55
2023/10/22 08:10:36;;;;;;;;;;;19.20;68.60;;;;;;7383767;19;4782;-55
2023/10/22 08:13:01;;;;;;;;;;;19.20;68.60;;;;;;7385898;19;4098;-54
2023/10/22 08:15:26;;;;;;;;;;;19.10;68.60;;;;;;7384015;19;4942;-55
2023/10/22 08:17:52;;;;;;;;;;;19.10;68.70;;;;;;7385219;19;4124;-54
2023/10/22 08:20:17;;;;;;;;;;;19.10;68.80;;;;;;7386687;19;4982;-54
2023/10/22 08:22:43;;;;;;;;;;;19.10;68.80;;;;;;7387065;19;5156;-55
2023/10/22 08:25:08;;;;;;;;;;;19.00;68.80;;;;;;7388761;19;4988;-55
2023/10/22 08:27:34;;;;;;;;;;;19.00;68.90;;;;;;7387525;19;4195;-55
2023/10/22 08:29:59;;;;;;;;;;;19.00;69.00;;;;;;7386527;19;4250;-55
2023/10/22 08:32:25;;;;;;;;;;;19.00;69.10;;;;;;7386442;19;4921;-54
2023/10/22 08:34:50;;;;;;;;;;;19.00;69.20;;;;;;7382351;19;4972;-55
2023/10/22 08:37:16;;;;;;;;;;;19.00;69.20;;;;;;7384824;19;3955;-54
2023/10/22 08:39:42;;;;;;;;;;;19.00;69.20;;;;;;7384653;19;4867;-50
2023/10/22 08:42:09;;;;;;;;;;;19.00;69.20;;;;;;7384182;19;4282;-54
2023/10/22 08:44:39;;;;;;;;;;;19.10;69.20;;;;;;7393158;19;4525;-52
2023/10/22 08:47:04;;;;;;;;;;;19.10;69.20;;;;;;7388851;19;5044;-54
2023/10/22 08:49:30;;;;;;;;;;;19.10;69.30;;;;;;7383588;19;3910;-55
2023/10/22 08:51:55;;;;;;;;;;;19.10;68.60;;;;;;7381984;19;5063;-54
2023/10/22 08:54:22;;;;;;;;;;;19.20;68.40;;;;;;7380223;19;3674;-55
2023/10/22 08:56:48;;;;;;;;;;;19.20;68.10;;;;;;7379773;19;4901;-54
2023/10/22 08:59:13;;;;;;;;;;;19.10;67.80;;;;;;7381121;19;3746;-55
2023/10/22 09:01:38;;;;;;;;;;;19.20;67.90;;;;;;7383249;19;3934;-54
2023/10/22 09:04:04;;;;;;;;;;;19.10;67.70;;;;;;7385757;19;3787;-55
2023/10/22 09:06:29;;;;;;;;;;;19.10;67.50;;;;;;7374862;19;5423;-54
2023/10/22 09:08:55;;;;;;;;;;;19.10;67.40;;;;;;7381630;19;3837;-54
2023/10/22 09:11:21;;;;;;;;;;;19.10;67.40;;;;;;7378476;19;5099;-53
2023/10/22 09:13:46;;;;;;;;;;;19.00;67.30;;;;;;7384208;19;4981;-55
2023/10/22 09:16:18;;;;;;;;;;;19.00;67.30;;;;;;7381249;19;5038;-54
2023/10/22 09:18:44;;;;;;;;;;;18.90;67.30;;;;;;7380452;19;4616;-52
2023/10/22 09:21:09;;;;;;;;;;;18.90;67.20;;;;;;7381746;19;3732;-55
2023/10/22 09:23:34;;;;;;;;;;;18.90;67.20;;;;;;7380856;19;5481;-54
2023/10/22 09:26:00;;;;;;;;;;;18.80;67.10;;;;;;7383803;19;4900;-54
2023/10/22 09:28:27;;;;;;;;;;;18.80;67.20;;;;;;7385780;19;4881;-54
2023/10/22 09:31:04;;;;;;;;;;;18.80;67.20;;;;;;7383746;19;3941;-55
2023/10/22 09:33:39;;;;;;;;;;;18.80;67.30;;;;;;7382553;19;4783;-54
2023/10/22 09:36:08;;;;;;;;;;;18.80;67.20;;;;;;7379349;19;4638;-54
2023/10/22 09:38:46;;;;;;;;;;;18.80;67.40;;;;;;7383860;19;4991;-52
2023/10/22 09:41:32;;;;;;;;;;;18.90;67.60;;;;;;7389503;19;3782;-54
2023/10/22 09:43:58;;;;;;;;;;;19.00;67.60;;;;;;7384860;19;4983;-55
2023/10/22 09:46:30;;;;;;;;;;;19.10;68.40;;;;;;7383815;19;3805;-54
2023/10/22 09:48:59;;;;;;;;;;;19.10;67.40;;;;;;7388398;19;3018;-52
2023/10/22 09:51:31;;;;;;;;;;;19.20;67.70;;;;;;7395972;19;2099;-52
2023/10/22 09:53:57;;;;;;;;;;;19.40;67.20;;;;;;7402685;19;2498;-52
2023/10/22 09:56:23;;;;;;;;;;;19.30;67.10;;;;;;7397170;19;1986;-49
2023/10/22 09:58:49;;;;;;;;;;;19.40;67.30;;;;;;7401597;19;3688;-60
2023/10/22 10:01:15;;;;;;;;;;;19.50;67.30;;;;;;7401031;19;2996;-51
2023/10/22 10:03:40;;;;;;;;;;;19.60;66.70;;;;;;7402926;19;2850;-51
2023/10/22 10:06:06;;;;;;;;;;;19.50;66.90;;;;;;7401666;19;1830;-51
2023/10/22 10:08:33;;;;;;;;;;;19.40;67.00;;;;;;7394022;19;5006;-51
2023/10/22 10:10:58;;;;;;;;;;;19.40;67.30;;;;;;7399038;19;3940;-51
2023/10/22 10:13:24;;;;;;;;;;;19.40;67.60;;;;;;7402372;19;1838;-58
2023/10/22 10:15:59;;;;;;;;;;;19.50;70.80;;;;;;7400097;19;3113;-49
2023/10/22 10:18:44;;;;;;;;;;;19.50;71.00;;;;;;7398826;19;2426;-51
2023/10/22 10:21:28;;;;;;;;;;;19.60;70.20;;;;;;7398567;19;1866;-57
2023/10/22 10:24:12;;;;;;;;;;;19.60;69.70;;;;;;7399729;19;1795;-50
2023/10/22 10:26:37;;;;;;;;;;;19.70;69.70;;;;;;7398365;19;2688;-49
2023/10/22 10:29:04;;;;;;;;;;;19.70;70.40;;;;;;7401770;19;1746;-50
2023/10/22 10:31:30;;;;;;;;;;;19.80;69.40;;;;;;7401987;19;2007;-57
2023/10/22 10:33:59;;;;;;;;;;;19.80;68.60;;;;;;7402451;19;1772;-57
2023/10/22 10:36:24;;;;;;;;;;;19.70;68.50;;;;;;7395623;19;2109;-54
2023/10/22 10:38:50;;;;;;;;;;;19.80;69.70;;;;;;7400205;19;2037;-54
2023/10/22 10:41:24;;;;;;;;;;;19.90;69.20;;;;;;7397802;19;4626;-53
2023/10/22 10:44:19;;;;;;;;;;;19.90;69.80;;;;;;7400364;19;3758;-52
2023/10/22 10:46:45;;;;;;;;;;;19.90;68.60;;;;;;7399437;19;2813;-54
2023/10/22 10:49:10;;;;;;;;;;;19.90;69.20;;;;;;7403500;19;1676;-55
2023/10/22 10:51:35;;;;;;;;;;;19.90;69.90;;;;;;7400963;19;1871;-56
2023/10/22 10:54:01;;;;;;;;;;;19.90;69.50;;;;;;7397964;19;2683;-51
2023/10/22 10:56:48;;;;;;;;;;;19.90;69.50;;;;;;7393402;19;2186;-53
2023/10/22 10:59:26;;;;;;;;;;;19.90;69.30;;;;;;7393536;19;2186;-54
2023/10/22 11:02:01;;;;;;;;;;;19.80;69.70;;;;;;7393086;19;2215;-53
2023/10/22 11:04:28;;;;;;;;;;;19.90;70.20;;;;;;7399025;19;2078;-53
2023/10/22 11:06:54;;;;;;;;;;;19.90;70.90;;;;;;7390558;19;5140;-53
2023/10/22 11:09:20;;;;;;;;;;;19.90;70.50;;;;;;7388535;19;4441;-52
2023/10/22 11:11:58;;;;;;;;;;;20.00;70.40;;;;;;7395313;19;3090;-53
2023/10/22 11:14:25;;;;;;;;;;;20.00;70.00;;;;;;7396197;19;1954;-52
2023/10/22 11:16:54;;;;;;;;;;;20.00;69.70;;;;;;7388806;19;3704;-55
2023/10/22 11:19:22;;;;;;;;;;;20.00;70.10;;;;;;7387069;19;2750;-52
2023/10/22 11:21:48;;;;;;;;;;;20.00;69.90;;;;;;7397196;19;1604;-53
2023/10/22 11:24:14;;;;;;;;;;;20.00;70.00;;;;;;7396043;19;1594;-55
2023/10/22 11:26:39;;;;;;;;;;;20.00;70.90;;;;;;7399120;19;2106;-55
2023/10/22 11:29:05;;;;;;;;;;;19.90;69.80;;;;;;7398134;19;3626;-55
2023/10/22 11:31:30;;;;;;;;;;;19.90;69.90;;;;;;7400989;19;1842;-56
2023/10/22 11:33:55;;;;;;;;;;;19.90;70.20;;;;;;7400035;19;1736;-55
2023/10/22 11:36:23;;;;;;;;;;;19.80;70.20;;;;;;7396184;19;1857;-55
2023/10/22 11:38:50;;;;;;;;;;;19.80;70.40;;;;;;7398071;19;1902;-55
2023/10/22 11:41:15;;;;;;;;;;;19.80;70.40;;;;;;7384104;19;4734;-57
2023/10/22 11:43:43;;;;;;;;;;;19.80;70.50;;;;;;7385886;19;3504;-55
2023/10/22 11:46:08;;;;;;;;;;;19.90;70.60;;;;;;7385396;19;4294;-56
2023/10/22 11:48:37;;;;;;;;;;;19.90;70.60;;;;;;7387432;19;3729;-56
2023/10/22 11:51:04;;;;;;;;;;;19.90;70.60;;;;;;7386066;19;4310;-56
2023/10/22 11:53:42;;;;;;;;;;;19.90;70.70;;;;;;7387222;19;3452;-55
2023/10/22 11:56:07;;;;;;;;;;;19.90;70.80;;;;;;7384841;19;3212;-55
2023/10/22 11:58:33;;;;;;;;;;;19.90;70.90;;;;;;7384294;19;4140;-55
2023/10/22 12:00:58;;;;;;;;;;;19.90;71.10;;;;;;7385678;19;4295;-56
2023/10/22 12:03:24;;;;;;;;;;;19.90;71.20;;;;;;7399868;19;3463;-55
2023/10/22 12:05:49;;;;;;;;;;;19.80;71.30;;;;;;7389264;19;4057;-55
2023/10/22 12:08:15;;;;;;;;;;;19.80;71.50;;;;;;7385263;19;3847;-55
2023/10/22 12:10:41;;;;;;;;;;;19.80;71.90;;;;;;7378594;19;5784;-51
2023/10/22 12:13:06;;;;;;;;;;;19.90;71.90;;;;;;7391382;19;5115;-51
2023/10/22 12:15:32;;;;;;;;;;;20.00;71.70;;;;;;7392946;19;3006;-52
2023/10/22 12:17:57;;;;;;;;;;;20.00;71.30;;;;;;7395785;19;1939;-51
2023/10/22 12:20:23;;;;;;;;;;;20.00;71.00;;;;;;7394810;19;3471;-54
2023/10/22 12:22:48;;;;;;;;;;;20.00;71.10;;;;;;7394652;19;2130;-54
2023/10/22 12:25:14;;;;;;;;;;;20.00;71.20;;;;;;7393667;19;2100;-54
2023/10/22 12:27:39;;;;;;;;;;;20.00;71.20;;;;;;7393209;19;2794;-57
2023/10/22 12:30:05;;;;;;;;;;;19.90;70.80;;;;;;7398550;19;1758;-59
2023/10/22 12:32:31;;;;;;;;;;;20.00;71.30;;;;;;7398117;19;1779;-57
2023/10/22 12:34:56;;;;;;;;;;;20.00;71.20;;;;;;7396055;19;1873;-57
2023/10/22 12:37:21;;;;;;;;;;;20.00;70.20;;;;;;7397466;19;2067;-58
2023/10/22 12:39:47;;;;;;;;;;;20.10;70.50;;;;;;7388769;19;4876;-58
2023/10/22 12:42:12;;;;;;;;;;;20.00;70.40;;;;;;7393768;19;3194;-58
2023/10/22 12:44:44;;;;;;;;;;;20.00;70.50;;;;;;7388348;19;2022;-56
2023/10/22 12:47:12;;;;;;;;;;;19.90;70.20;;;;;;7396674;19;3233;-57
2023/10/22 12:49:44;;;;;;;;;;;19.90;70.10;;;;;;7393244;19;4392;-56
2023/10/22 12:52:12;;;;;;;;;;;19.90;70.20;;;;;;7392722;19;1633;-56
2023/10/22 12:54:38;;;;;;;;;;;19.90;70.00;;;;;;7386800;19;3828;-56
2023/10/22 12:57:07;;;;;;;;;;;19.90;70.10;;;;;;7381276;19;3943;-56
2023/10/22 12:59:32;;;;;;;;;;;19.90;68.70;;;;;;7386530;19;4019;-56
2023/10/22 13:01:58;;;;;;;;;;;19.90;69.30;;;;;;7384877;19;4258;-56
2023/10/22 13:04:23;;;;;;;;;;;19.90;69.50;;;;;;7386839;19;4003;-55
2023/10/22 13:06:49;;;;;;;;;;;19.90;69.70;;;;;;7395548;19;1629;-55
2023/10/22 13:09:17;;;;;;;;;;;19.90;69.80;;;;;;7386819;19;3409;-56
2023/10/22 13:11:43;;;;;;;;;;;19.90;69.70;;;;;;7379840;19;4101;-57
2023/10/22 13:14:08;;;;;;;;;;;19.90;69.60;;;;;;7385022;19;3405;-56
2023/10/22 13:16:34;;;;;;;;;;;19.90;69.90;;;;;;7381017;19;3565;-56
2023/10/22 13:18:59;;;;;;;;;;;19.90;70.00;;;;;;7380512;19;3698;-56
2023/10/22 13:21:24;;;;;;;;;;;19.90;69.90;;;;;;7381139;19;4647;-57
2023/10/22 13:23:50;;;;;;;;;;;19.90;69.80;;;;;;7383539;19;3731;-56
2023/10/22 13:26:15;;;;;;;;;;;19.80;69.60;;;;;;7378635;19;3820;-56
2023/10/22 13:28:41;;;;;;;;;;;19.80;69.70;;;;;;7382634;19;4857;-56
2023/10/22 13:31:06;;;;;;;;;;;19.80;69.20;;;;;;7384583;19;4826;-56
2023/10/22 13:33:32;;;;;;;;;;;19.80;68.90;;;;;;7388618;19;4779;-55
2023/10/22 13:36:00;;;;;;;;;;;19.70;68.40;;;;;;7394062;19;1857;-55
2023/10/22 13:38:28;;;;;;;;;;;19.70;68.50;;;;;;7392520;19;1389;-55
2023/10/22 13:40:53;;;;;;;;;;;19.70;68.40;;;;;;7383504;19;4094;-57
2023/10/22 13:43:19;;;;;;;;;;;19.70;68.40;;;;;;7385721;19;4920;-57
2023/10/22 13:45:44;;;;;;;;;;;19.70;68.30;;;;;;7394227;19;5339;-56
2023/10/22 13:48:10;;;;;;;;;;;19.70;67.90;;;;;;7384299;19;4901;-57
2023/10/22 13:50:36;;;;;;;;;;;19.70;67.80;;;;;;7380659;19;4773;-57
2023/10/22 13:53:01;;;;;;;;;;;19.70;68.20;;;;;;7384779;19;4950;-57
2023/10/22 13:55:27;;;;;;;;;;;19.70;68.40;;;;;;7385170;19;3942;-56
2023/10/22 13:57:53;;;;;;;;;;;19.70;68.10;;;;;;7384734;19;5014;-56
2023/10/22 14:00:19;;;;;;;;;;;19.70;68.00;;;;;;7384274;19;4881;-56
2023/10/22 14:02:44;;;;;;;;;;;19.70;67.70;;;;;;7385605;19;4204;-57
2023/10/22 14:05:10;;;;;;;;;;;19.70;68.00;;;;;;7383480;19;4752;-57
2023/10/22 14:07:37;;;;;;;;;;;19.70;68.00;;;;;;7382620;19;4826;-57
2023/10/22 14:10:09;;;;;;;;;;;19.70;67.80;;;;;;7384210;19;4823;-57
2023/10/22 14:12:34;;;;;;;;;;;19.60;67.60;;;;;;7377844;19;4269;-57
2023/10/22 14:15:00;;;;;;;;;;;19.60;67.90;;;;;;7381934;19;5060;-51
2023/10/22 14:17:25;;;;;;;;;;;19.70;68.00;;;;;;7381390;19;4866;-57
2023/10/22 14:19:54;;;;;;;;;;;19.60;67.50;;;;;;7380234;19;4998;-57
2023/10/22 14:22:20;;;;;;;;;;;19.70;67.70;;;;;;7380138;19;5320;-56
2023/10/22 14:24:45;;;;;;;;;;;19.60;67.60;;;;;;7378372;19;5022;-57
2023/10/22 14:27:10;;;;;;;;;;;19.60;67.60;;;;;;7377555;19;4669;-56